createdAt,value
2019-01-10T00:02:44.511Z,4.90
2019-01-10T00:05:25.692Z,3.77
2019-01-10T00:08:13.734Z,4.75
2019-01-10T00:10:55.676Z,5.08
2019-01-10T00:13:43.699Z,4.70
2019-01-10T00:16:25.521Z,4.35
2019-01-10T00:19:13.523Z,5.40
2019-01-10T00:21:55.252Z,3.67
2019-01-10T00:24:43.274Z,3.50
2019-01-10T00:27:24.427Z,4.40
2019-01-10T00:30:26.907Z,4.53
2019-01-10T00:33:08.763Z,4.45
2019-01-10T00:35:56.776Z,4.72
2019-01-10T00:38:44.816Z,4.30
2019-01-10T00:41:26.554Z,4.60
2019-01-10T00:44:14.604Z,4.10
2019-01-10T00:46:56.349Z,3.55
2019-01-10T00:49:44.421Z,4.33
2019-01-10T00:52:26.169Z,3.45
2019-01-10T00:55:14.159Z,4.08
2019-01-10T00:57:55.951Z,4.40
2019-01-10T01:00:44.011Z,3.80
2019-01-10T01:03:25.449Z,4.80
2019-01-10T01:06:15.606Z,4.42
2019-01-10T01:08:56.845Z,4.37
2019-01-10T01:11:44.786Z,4.20
2019-01-10T01:14:26.588Z,4.60
2019-01-10T01:17:15.888Z,4.45
2019-01-10T01:19:58.376Z,4.58
2019-01-10T01:22:46.465Z,4.50
2019-01-10T01:25:34.575Z,5.47
2019-01-10T01:28:16.056Z,4.90
2019-01-10T01:31:04.148Z,4.70
2019-01-10T01:33:45.441Z,4.80
2019-01-10T01:36:33.429Z,5.05
2019-01-10T01:39:15.016Z,4.72
2019-01-10T01:42:03.051Z,4.83
2019-01-10T01:44:44.843Z,4.80
2019-01-10T01:47:32.856Z,5.67
2019-01-10T01:50:15.631Z,4.60
2019-01-10T01:53:03.696Z,5.00
2019-01-10T01:55:45.263Z,4.47
2019-01-10T01:58:33.297Z,5.03
2019-01-10T02:01:15.215Z,5.03
2019-01-10T02:04:03.280Z,5.72
2019-01-10T02:06:44.672Z,5.17
2019-01-10T02:09:32.713Z,5.17
2019-01-10T02:12:14.580Z,5.70
2019-01-10T02:15:02.636Z,5.20
2019-01-10T02:17:49.242Z,5.35
2019-01-10T02:20:34.045Z,5.45
2019-01-10T02:23:15.339Z,5.90
2019-01-10T02:26:03.332Z,5.42
2019-01-10T02:28:44.739Z,6.08
2019-01-10T02:31:32.784Z,5.90
2019-01-10T02:34:14.746Z,5.90
2019-01-10T02:37:02.781Z,6.20
2019-01-10T02:39:43.978Z,6.30
2019-01-10T02:42:26.094Z,6.97
2019-01-10T02:45:28.661Z,6.92
2019-01-10T02:47:57.342Z,5.15
2019-01-10T02:50:45.336Z,5.87
2019-01-10T02:53:32.984Z,6.05
2019-01-10T02:56:14.319Z,6.62
2019-01-10T02:59:02.445Z,6.80
2019-01-10T03:01:44.554Z,6.58
2019-01-10T03:04:32.591Z,6.28
2019-01-10T03:07:14.556Z,6.40
2019-01-10T03:10:02.607Z,6.25
2019-01-10T03:12:44.871Z,6.10
2019-01-10T03:15:32.858Z,5.83
2019-01-10T03:18:14.778Z,6.87
2019-01-10T03:21:02.809Z,6.10
2019-01-10T03:23:44.746Z,6.37
2019-01-10T03:26:32.799Z,7.22
2019-01-10T03:29:14.628Z,6.00
2019-01-10T03:32:02.669Z,5.65
2019-01-10T03:34:44.633Z,5.70
2019-01-10T03:37:32.658Z,6.72
2019-01-10T03:40:18.106Z,5.50
2019-01-10T03:43:07.675Z,6.17
2019-01-10T03:45:50.339Z,6.78
2019-01-10T03:48:39.473Z,5.92
2019-01-10T03:51:20.839Z,5.83
2019-01-10T03:54:03.074Z,6.30
2019-01-10T03:56:51.714Z,6.37
2019-01-10T03:59:33.994Z,6.28
2019-01-10T04:02:22.236Z,5.95
2019-01-10T04:05:04.549Z,7.15
2019-01-10T04:07:55.064Z,6.95
2019-01-10T04:10:36.452Z,7.60
2019-01-10T04:13:24.700Z,6.35
2019-01-10T04:16:08.354Z,6.40
2019-01-10T04:18:56.545Z,6.87
2019-01-10T04:21:38.698Z,6.92
2019-01-10T04:24:26.937Z,6.40
2019-01-10T04:27:08.863Z,6.62
2019-01-10T04:29:51.177Z,7.08
2019-01-10T04:32:39.418Z,6.12
2019-01-10T04:35:21.501Z,5.78
2019-01-10T04:38:10.326Z,6.20
2019-01-10T04:40:58.473Z,6.47
2019-01-10T04:43:40.235Z,6.30
2019-01-10T04:46:28.463Z,6.85
2019-01-10T04:49:10.256Z,7.62
2019-01-10T04:51:58.324Z,5.45
2019-01-10T04:54:40.121Z,5.92
2019-01-10T04:57:28.460Z,5.97
2019-01-10T05:00:11.074Z,6.90
2019-01-10T05:02:59.170Z,6.67
2019-01-10T05:05:41.324Z,6.80
2019-01-10T05:08:29.320Z,7.20
2019-01-10T05:11:11.492Z,6.20
2019-01-10T05:13:59.718Z,6.47
2019-01-10T05:16:48.606Z,7.75
2019-01-10T05:19:39.764Z,6.15
2019-01-10T05:22:21.170Z,6.12
2019-01-10T05:25:10.887Z,5.87
2019-01-10T05:27:52.554Z,4.75
2019-01-10T05:30:40.899Z,6.35
2019-01-10T05:33:22.903Z,5.65
2019-01-10T05:36:11.117Z,6.03
2019-01-10T05:38:53.985Z,6.17
2019-01-10T05:41:41.830Z,5.17
2019-01-10T05:44:26.624Z,6.47
2019-01-10T05:47:12.970Z,5.92
2019-01-10T05:49:54.907Z,6.08
2019-01-10T05:52:42.899Z,6.72
2019-01-10T05:55:24.871Z,6.00
2019-01-10T05:58:12.829Z,5.20
2019-01-10T06:00:54.352Z,5.90
2019-01-10T06:03:42.411Z,6.03
2019-01-10T06:06:24.429Z,5.67
2019-01-10T06:09:12.372Z,5.65
2019-01-10T06:11:53.910Z,6.60
2019-01-10T06:14:41.873Z,5.22
2019-01-10T06:17:23.905Z,5.67
2019-01-10T06:20:32.646Z,7.08
2019-01-10T06:23:14.170Z,5.53
2019-01-10T06:26:02.216Z,6.17
2019-01-10T06:28:45.307Z,7.22
2019-01-10T06:31:33.282Z,7.55
2019-01-10T06:34:15.163Z,6.47
2019-01-10T06:37:03.192Z,6.60
2019-01-10T06:39:45.094Z,7.08
2019-01-10T06:42:33.477Z,6.83
2019-01-10T06:45:15.941Z,6.40
2019-01-10T06:48:04.167Z,7.25
2019-01-10T06:50:45.881Z,7.55
2019-01-10T06:53:33.977Z,7.10
2019-01-10T06:56:15.999Z,7.97
2019-01-10T06:59:04.089Z,8.05
2019-01-10T07:01:52.182Z,7.90
2019-01-10T07:04:33.949Z,7.65
2019-01-10T07:07:21.962Z,8.65
2019-01-10T07:10:03.622Z,8.88
2019-01-10T07:12:51.659Z,9.25
2019-01-10T07:15:34.160Z,7.90
2019-01-10T07:18:22.398Z,7.90
2019-01-10T07:21:04.913Z,7.42
2019-01-10T07:23:56.173Z,7.30
2019-01-10T07:26:44.733Z,8.00
2019-01-10T07:29:26.450Z,7.12
2019-01-10T07:32:14.542Z,6.90
2019-01-10T07:34:57.858Z,7.53
2019-01-10T07:37:26.651Z,6.95
2019-01-10T07:40:15.254Z,7.78
2019-01-10T07:46:28.574Z,8.08
2019-01-10T07:49:10.561Z,8.05
2019-01-10T07:51:58.553Z,7.80
2019-01-10T07:54:42.582Z,7.45
2019-01-10T07:57:30.223Z,8.10
2019-01-10T08:00:13.222Z,8.05
2019-01-10T08:02:42.674Z,8.43
2019-01-10T08:05:30.718Z,10.48
2019-01-10T08:08:14.393Z,9.85
2019-01-10T08:11:02.616Z,8.08
2019-01-10T08:13:44.554Z,8.48
2019-01-10T08:16:32.596Z,7.65
2019-01-10T08:19:14.707Z,7.97
2019-01-10T08:22:03.084Z,8.30
2019-01-10T08:24:44.780Z,7.95
2019-01-10T08:27:32.896Z,8.05
2019-01-10T08:30:15.869Z,8.40
2019-01-10T08:33:03.894Z,8.55
2019-01-10T08:35:46.136Z,7.60
2019-01-10T08:38:34.140Z,9.05
2019-01-10T08:41:16.394Z,9.10
2019-01-10T08:44:04.657Z,7.75
2019-01-10T08:46:33.420Z,8.18
2019-01-10T08:49:23.855Z,7.80
2019-01-10T08:52:11.905Z,8.43
2019-01-10T08:54:53.115Z,8.28
2019-01-10T08:57:41.217Z,7.17
2019-01-10T09:00:22.633Z,7.65
2019-01-10T09:03:10.712Z,8.15
2019-01-10T09:05:52.879Z,6.40
2019-01-10T09:08:21.593Z,7.22
2019-01-10T09:11:09.644Z,8.05
2019-01-10T09:13:51.414Z,7.90
2019-01-10T09:16:39.634Z,8.30
2019-01-10T09:19:21.055Z,8.28
2019-01-10T09:22:09.093Z,7.90
2019-01-10T09:24:50.890Z,6.25
2019-01-10T09:27:38.953Z,7.20
2019-01-10T09:30:21.175Z,8.55
2019-01-10T09:33:09.216Z,7.97
2019-01-10T09:35:50.657Z,7.42
2019-01-10T09:38:38.655Z,8.40
2019-01-10T09:41:20.738Z,6.85
2019-01-10T09:44:02.369Z,7.58
2019-01-10T09:46:31.222Z,7.30
2019-01-10T09:49:19.250Z,7.08
2019-01-10T09:52:07.290Z,9.20
2019-01-10T09:54:48.969Z,7.20
2019-01-10T09:57:37.036Z,7.30
2019-01-10T10:00:20.628Z,8.20
2019-01-10T10:03:08.737Z,7.50
2019-01-10T10:05:50.604Z,7.58
2019-01-10T10:08:57.948Z,6.25
2019-01-10T10:11:41.121Z,5.42
2019-01-10T10:14:29.229Z,5.90
2019-01-10T10:17:11.150Z,6.00
2019-01-10T10:19:59.189Z,6.67
2019-01-10T10:22:41.279Z,6.40
2019-01-10T10:25:29.342Z,7.17
2019-01-10T10:28:11.209Z,6.20
2019-01-10T10:30:59.319Z,5.97
2019-01-10T10:33:41.561Z,7.25
2019-01-10T10:36:30.042Z,7.08
2019-01-10T10:39:11.379Z,6.90
2019-01-10T10:41:59.520Z,7.08
2019-01-10T10:44:41.461Z,6.58
2019-01-10T10:47:29.746Z,5.37
2019-01-10T10:50:12.705Z,6.08
2019-01-10T10:55:45.092Z,4.78
2019-01-10T10:58:33.190Z,5.37
2019-01-10T11:01:16.493Z,5.28
2019-01-10T11:04:05.143Z,5.15
2019-01-10T11:06:52.470Z,5.47
2019-01-10T11:12:32.799Z,4.80
2019-01-10T11:15:20.858Z,4.97
2019-01-10T11:18:02.324Z,4.45
2019-01-10T11:20:50.456Z,6.10
2019-01-10T11:23:38.489Z,5.10
2019-01-10T11:26:21.922Z,4.70
2019-01-10T11:29:04.823Z,4.15
2019-01-10T11:31:52.881Z,4.65
2019-01-10T11:34:34.934Z,5.15
2019-01-10T11:37:23.025Z,4.47
2019-01-10T11:40:26.274Z,4.42
2019-01-10T11:43:14.488Z,4.75
2019-01-10T11:45:56.123Z,3.52
2019-01-10T11:48:44.132Z,5.33
2019-01-10T11:51:12.906Z,4.80
2019-01-10T11:54:00.914Z,4.92
2019-01-10T11:56:49.020Z,4.22
2019-01-10T11:59:30.745Z,3.77
2019-01-10T12:02:18.824Z,5.00
2019-01-10T12:05:00.474Z,4.50
2019-01-10T12:07:30.347Z,4.22
2019-01-10T12:10:12.681Z,4.12
2019-01-10T12:12:41.513Z,4.08
2019-01-10T12:15:29.747Z,3.87
2019-01-10T12:18:11.680Z,5.00
2019-01-10T12:20:59.696Z,4.70
2019-01-10T12:23:47.976Z,3.10
2019-01-10T12:26:29.660Z,4.60
2019-01-10T12:29:17.827Z,3.77
2019-01-10T12:31:59.619Z,3.95
2019-01-10T12:34:47.655Z,3.25
2019-01-10T12:37:29.744Z,4.17
2019-01-10T12:40:17.779Z,3.37
2019-01-10T12:43:19.090Z,3.50
2019-01-10T12:46:06.045Z,3.92
2019-01-10T12:48:47.324Z,4.20
2019-01-10T12:51:35.612Z,3.90
2019-01-10T12:54:17.476Z,3.95
2019-01-10T12:57:05.616Z,3.50
2019-01-10T12:59:47.770Z,4.10
2019-01-10T13:02:35.796Z,3.95
2019-01-10T13:05:17.342Z,3.75
2019-01-10T13:07:46.166Z,4.50
2019-01-10T13:10:34.181Z,4.45
2019-01-10T13:13:15.805Z,3.62
2019-01-10T13:16:04.144Z,4.10
2019-01-10T13:18:46.291Z,4.03
2019-01-10T13:21:34.434Z,4.80
2019-01-10T13:24:16.484Z,3.62
2019-01-10T13:27:04.525Z,4.15
2019-01-10T13:29:46.990Z,3.60
2019-01-10T13:32:35.086Z,3.67
2019-01-10T13:35:17.218Z,3.40
2019-01-10T13:37:46.103Z,3.83
2019-01-10T13:40:34.293Z,4.15
2019-01-10T13:43:36.498Z,3.12
2019-01-10T13:46:05.585Z,3.95
2019-01-10T13:48:53.665Z,3.30
2019-01-10T13:51:36.190Z,3.15
2019-01-10T13:54:24.276Z,3.37
2019-01-10T13:57:05.630Z,3.45
2019-01-10T13:59:53.643Z,3.17
2019-01-10T14:02:35.553Z,3.42
2019-01-10T14:05:23.917Z,3.92
2019-01-10T14:08:06.495Z,3.58
2019-01-10T14:10:54.501Z,3.60
2019-01-10T14:13:23.260Z,3.70
2019-01-10T14:16:04.823Z,4.05
2019-01-10T14:18:53.601Z,2.87
2019-01-10T14:21:35.413Z,3.60
2019-01-10T14:24:23.395Z,3.25
2019-01-10T14:26:52.198Z,4.17
2019-01-10T14:29:40.239Z,3.65
2019-01-10T14:32:28.485Z,4.10
2019-01-10T14:35:12.170Z,4.87
2019-01-10T14:37:41.018Z,4.17
2019-01-10T14:40:51.078Z,4.10
2019-01-10T14:43:20.102Z,3.62
2019-01-10T14:46:02.524Z,3.80
2019-01-10T14:51:54.915Z,3.70
2019-01-10T14:54:44.411Z,3.90
2019-01-10T14:57:28.191Z,2.83
2019-01-10T15:00:37.045Z,3.25
2019-01-10T15:03:05.772Z,3.55
2019-01-10T15:05:54.071Z,3.80
2019-01-10T15:08:42.127Z,3.80
2019-01-10T15:11:23.852Z,3.12
2019-01-10T15:13:52.607Z,3.40
2019-01-10T15:16:43.038Z,3.70
2019-01-10T15:19:31.962Z,3.40
2019-01-10T15:22:14.077Z,3.80
2019-01-10T15:28:01.474Z,3.30
2019-01-10T15:30:49.530Z,4.35
2019-01-10T15:33:31.807Z,3.50
2019-01-10T15:36:19.793Z,3.72
2019-01-10T15:39:03.142Z,4.15
2019-01-10T15:41:51.158Z,3.37
2019-01-10T15:44:33.325Z,3.30
2019-01-10T15:47:21.829Z,3.55
2019-01-10T15:50:04.013Z,3.65
2019-01-10T15:52:53.087Z,2.92
2019-01-10T15:55:35.035Z,2.52
2019-01-10T15:58:23.548Z,4.15
2019-01-10T16:01:05.208Z,2.67
2019-01-10T16:03:33.965Z,3.33
2019-01-10T16:06:02.755Z,2.92
2019-01-10T16:08:51.562Z,3.22
2019-01-10T16:11:40.317Z,3.22
2019-01-10T16:14:21.897Z,4.00
2019-01-10T16:17:10.007Z,4.08
2019-01-10T16:19:50.858Z,3.50
2019-01-10T16:22:32.235Z,3.45
2019-01-10T16:25:20.274Z,3.55
2019-01-10T16:28:02.416Z,3.02
2019-01-10T16:30:51.449Z,3.20
2019-01-10T16:33:33.272Z,3.27
2019-01-10T16:36:21.420Z,2.75
2019-01-10T16:39:04.569Z,5.58
2019-01-10T16:41:52.490Z,4.17
2019-01-10T16:44:38.135Z,3.37
2019-01-10T16:47:31.492Z,3.75
2019-01-10T16:53:19.041Z,4.05
2019-01-10T16:55:47.878Z,4.17
2019-01-10T17:01:43.429Z,4.08
2019-01-10T17:11:01.148Z,4.15
2019-01-10T17:13:49.135Z,3.75
2019-01-10T17:16:31.255Z,4.08
2019-01-10T17:18:59.980Z,4.00
2019-01-10T17:21:28.792Z,5.17
2019-01-10T17:23:57.422Z,4.12
2019-01-10T17:26:45.450Z,4.40
2019-01-10T17:29:27.037Z,4.53
2019-01-10T17:32:15.158Z,4.55
2019-01-10T17:34:57.037Z,5.80
2019-01-10T17:37:45.066Z,4.70
2019-01-10T17:40:26.985Z,4.00
2019-01-10T17:42:55.921Z,4.12
2019-01-10T17:45:44.078Z,4.70
2019-01-10T17:48:25.775Z,4.42
2019-01-10T17:51:13.749Z,4.70
2019-01-10T17:53:55.542Z,4.78
2019-01-10T17:56:43.596Z,4.20
2019-01-10T17:59:25.470Z,5.22
2019-01-10T18:02:13.532Z,4.53
2019-01-10T18:04:55.592Z,5.00
2019-01-10T18:07:43.665Z,4.62
2019-01-10T18:10:25.741Z,4.78
2019-01-10T18:13:13.795Z,5.40
2019-01-10T18:15:55.796Z,5.40
2019-01-10T18:18:43.730Z,5.70
2019-01-10T18:21:25.648Z,4.83
2019-01-10T18:24:07.589Z,4.45
2019-01-10T18:26:55.623Z,5.00
2019-01-10T18:29:37.748Z,5.30
2019-01-10T18:32:06.488Z,5.55
2019-01-10T18:34:54.661Z,5.03
2019-01-10T18:37:36.525Z,4.83
2019-01-10T18:40:24.552Z,3.90
2019-01-10T18:43:06.189Z,4.95
2019-01-10T18:45:54.152Z,3.85
2019-01-10T18:48:39.745Z,3.77
2019-01-10T18:51:25.507Z,3.72
2019-01-10T18:54:07.146Z,3.98
2019-01-10T18:56:55.133Z,4.08
2019-01-10T18:59:36.641Z,3.10
2019-01-10T19:02:24.666Z,3.60
2019-01-10T19:05:06.853Z,3.62
2019-01-10T19:07:54.856Z,3.50
2019-01-10T19:10:36.696Z,4.20
2019-01-10T19:13:24.636Z,3.65
2019-01-10T19:16:05.979Z,3.50
2019-01-10T19:18:53.906Z,3.27
2019-01-10T19:21:35.885Z,3.58
2019-01-10T19:24:23.922Z,4.03
2019-01-10T19:27:06.044Z,3.67
2019-01-10T19:29:54.080Z,3.30
2019-01-10T19:32:35.521Z,3.25
2019-01-10T19:35:44.237Z,3.22
2019-01-10T19:38:26.124Z,3.42
2019-01-10T19:41:14.168Z,3.08
2019-01-10T19:43:59.939Z,3.33
2019-01-10T19:46:41.224Z,3.20
2019-01-10T19:49:29.201Z,3.17
2019-01-10T19:52:11.066Z,3.10
2019-01-10T19:54:58.985Z,3.05
2019-01-10T19:57:27.753Z,3.25
2019-01-10T20:00:35.127Z,2.77
2019-01-10T20:03:23.221Z,2.70
2019-01-10T20:06:04.712Z,3.30
2019-01-10T20:08:33.452Z,2.80
2019-01-10T20:11:15.025Z,2.67
2019-01-10T20:14:03.100Z,3.20
2019-01-10T20:16:45.146Z,3.25
2019-01-10T20:19:33.114Z,2.70
2019-01-10T20:22:14.381Z,2.52
2019-01-10T20:25:02.401Z,2.95
2019-01-10T20:27:44.025Z,2.60
2019-01-10T20:30:32.012Z,3.50
2019-01-10T20:33:13.893Z,2.40
2019-01-10T20:36:01.935Z,2.80
2019-01-10T20:38:43.813Z,2.87
2019-01-10T20:41:31.840Z,2.85
2019-01-10T20:44:13.722Z,2.92
2019-01-10T20:47:01.762Z,3.47
2019-01-10T20:49:43.446Z,3.22
2019-01-10T20:52:24.693Z,3.40
2019-01-10T20:55:31.996Z,2.87
2019-01-10T20:58:13.505Z,2.52
2019-01-10T21:01:01.706Z,3.10
2019-01-10T21:03:47.136Z,2.70
2019-01-10T21:06:29.452Z,2.58
2019-01-10T21:09:17.480Z,2.95
2019-01-10T21:11:59.709Z,3.00
2019-01-10T21:14:47.774Z,4.25
2019-01-10T21:17:29.522Z,2.70
2019-01-10T21:20:17.543Z,3.42
2019-01-10T21:22:59.638Z,3.30
2019-01-10T21:25:47.636Z,3.65
2019-01-10T21:28:30.283Z,3.55
2019-01-10T21:34:15.623Z,2.67
2019-01-10T21:37:03.647Z,3.35
2019-01-10T21:39:45.497Z,3.00
2019-01-10T21:42:33.568Z,3.25
2019-01-10T21:45:16.432Z,3.20
2019-01-10T21:48:04.535Z,3.20
2019-01-10T21:50:45.733Z,3.62
2019-01-10T21:53:14.549Z,3.20
2019-01-10T21:56:02.584Z,3.33
2019-01-10T21:58:44.186Z,3.25
2019-01-10T22:01:32.172Z,2.98
2019-01-10T22:04:14.088Z,3.40
2019-01-10T22:07:02.094Z,3.85
2019-01-10T22:09:44.125Z,4.40
2019-01-10T22:12:32.055Z,3.55
2019-01-10T22:15:15.108Z,4.00
2019-01-10T22:18:03.156Z,4.35
2019-01-10T22:20:45.189Z,3.98
2019-01-10T22:23:33.212Z,3.62
2019-01-10T22:26:15.000Z,3.10
2019-01-10T22:29:03.036Z,4.37
2019-01-10T22:31:44.573Z,3.75
2019-01-10T22:34:32.611Z,4.50
2019-01-10T22:37:14.639Z,3.92
2019-01-10T22:40:02.641Z,4.33
2019-01-10T22:42:43.919Z,4.92
2019-01-10T22:45:31.917Z,3.70
2019-01-10T22:48:14.061Z,4.17
2019-01-10T22:50:55.957Z,5.20
2019-01-10T22:53:44.630Z,3.67
2019-01-10T22:56:32.661Z,3.60
2019-01-10T22:59:01.509Z,4.80
2019-01-10T23:01:49.975Z,4.65
2019-01-10T23:04:38.117Z,6.95
2019-01-10T23:07:19.676Z,5.72
2019-01-10T23:10:08.610Z,5.85
2019-01-10T23:12:50.321Z,4.37
2019-01-10T23:15:38.350Z,6.15
2019-01-10T23:18:20.149Z,5.30
2019-01-10T23:21:08.136Z,4.92
2019-01-10T23:23:53.481Z,4.20
2019-01-10T23:26:55.580Z,5.62
2019-01-10T23:29:37.510Z,3.90
2019-01-10T23:32:25.476Z,4.72
2019-01-10T23:35:13.531Z,4.72
2019-01-10T23:37:56.872Z,3.90
2019-01-10T23:40:44.931Z,3.62
2019-01-10T23:43:27.034Z,2.87
2019-01-10T23:46:15.073Z,3.40
2019-01-10T23:49:00.546Z,3.35
2019-01-10T23:51:46.859Z,3.17
2019-01-10T23:54:28.717Z,3.15
2019-01-10T23:57:16.755Z,3.50
2019-01-10T23:59:58.624Z,3.45
